• Join FlightAware (Why Join?)
  • Login
  • US Flag 
11:13PM EDT


 

Airport Tracker/Info


-or-


 

Live Flight TrackerFlight Track Log ✈ N4847U ✈ 31-Oct-2013 ✈ KMVY - KBED

Flight Track Log - Related Links

Times and Time Zones

All times are in EDT time to prevent confusion due to time zone crossing. See the N4847U flight status page for this flight to view local times or setup timezone preferences in your user account.

Time Position Orientation Groundspeed Altitude Reporting Facility
EDT Latitude Longitude Course Direction KTS MPH feet Rate Location/Type
02:46PM 41.4367 -70.6558 North 140 161 1,600  Level Boston Center
02:47PM 41.4761 -70.6517 North 143 165 2,000 600 Climbing Boston Center
02:48PM 41.5156 -70.6444 North 136 157 2,900 720 Climbing Boston Center
02:49PM 41.5511 -70.6400 North 129 148 3,500 480 Climbing Boston Center
02:50PM 41.5978 -70.5949 North  Level FlightAware Approximate
02:50PM 41.5869 -70.6342 North 129 148 4,000  Level Boston Center
02:51PM 41.6319 -70.5918 North  Level FlightAware Approximate
02:51PM 41.6275 -70.6281 North 146 168 4,100  Level Boston Center
02:52PM 41.6700 -70.6208 North 153 176 4,000 -60 Descending Boston Center
02:53PM 41.7128 -70.6147 North 158 182 4,000 -120 Level Boston Center
02:53PM 41.7333 -70.6167 356° North 148 170 3,900  Descending KA90
02:54PM 41.7439 -70.6356 307° West 126 145 4,000 60 Climbing Boston Center
02:55PM 41.7728 -70.6658 322° Northwest 130 150 4,000 -540 Level Boston Center
02:56PM 41.8011 -70.7025 316° Northwest 142 163 3,000 -1,020 Descending Boston Center
02:57PM 41.8286 -70.7456 311° West 151 174 2,000 -600 Descending Boston Center
02:58PM 41.8536 -70.7850 310° West 142 163 1,900  Descending Boston Center
02:59PM 41.8772 -70.8303 305° West 127 146 2,000 60 Climbing Boston Center
03:00PM 41.9033 -70.8631 317° Northwest 131 151 2,100  Climbing Boston Center
03:01PM 41.9356 -70.8972 322° Northwest 136 157 2,100  Level Boston Center
03:02PM 41.9650 -70.9286 322° Northwest 136 157 2,100  Level Boston Center
03:03PM 41.9942 -70.9628 319° Northwest 139 160 2,100 -180 Level Boston Center
03:04PM 42.0242 -70.9978 319° Northwest 142 163 1,800 -180 Descending Boston Center
03:05PM 42.0567 -71.0350 320° Northwest 143 165 1,800 -60 Level Boston Center
03:06PM 42.0881 -71.0686 322° Northwest 144 166 1,700  Descending Boston Center
03:07PM 42.1333 -71.1000 333° Northwest 139 160 1,800  Climbing KA90
03:08PM 42.1500 -71.1333 304° West 138 159 1,800 -120 Level KA90
03:09PM 42.1833 -71.1833 312° West 142 163 1,600 -120 Descending KA90
03:10PM 42.2072 -71.2050 326° Northwest 143 165 1,600  Level Boston Center
03:11PM 42.2475 -71.2264 339° North 145 167 1,700  Climbing Boston Center
03:12PM 42.2858 -71.2453 340° North 146 168 1,700  Level Boston Center
03:13PM 42.3214 -71.2717 331° Northwest 146 168 1,700  Level Boston Center
03:14PM 42.3592 -71.2897 341° North 145 167 1,700  Level Boston Center
03:16PM 42.3959 -71.2875 North  Level FlightAware Approximate
03:23PM 42.4667 -71.2833 328° Northwest  Level FlightAware Approximate
03:24PM 42.4699 -71.2890 328° Northwest  Level Estimated